createdAt,value
2022-12-03T00:01:08.650Z,59.50
2022-12-03T00:03:54.952Z,59.50
2022-12-03T00:06:40.312Z,59.30
2022-12-03T00:09:26.144Z,59.40
2022-12-03T00:12:11.334Z,59.20
2022-12-03T00:14:58.960Z,59.40
2022-12-03T00:17:46.702Z,59.30
2022-12-03T00:20:34.207Z,59.20
2022-12-03T00:23:19.437Z,59.40
2022-12-03T00:26:07.324Z,59.30
2022-12-03T00:28:54.726Z,58.90
2022-12-03T00:31:43.255Z,58.90
2022-12-03T00:34:28.845Z,59.10
2022-12-03T00:37:14.469Z,58.80
2022-12-03T00:40:00.943Z,58.60
2022-12-03T00:42:46.973Z,58.40
2022-12-03T00:45:32.523Z,58.40
2022-12-03T00:48:27.703Z,58.30
2022-12-03T00:51:15.107Z,58.40
2022-12-03T00:54:00.329Z,58.90
2022-12-03T00:56:45.920Z,58.90
2022-12-03T00:59:31.604Z,58.70
2022-12-03T01:02:19.175Z,58.60
2022-12-03T01:05:05.396Z,58.70
2022-12-03T01:07:53.220Z,58.60
2022-12-03T01:10:43.699Z,58.40
2022-12-03T01:13:29.050Z,58.50
2022-12-03T01:16:19.131Z,58.40
2022-12-03T01:19:08.045Z,58.40
2022-12-03T01:21:54.004Z,58.60
2022-12-03T01:24:39.250Z,58.60
2022-12-03T01:27:24.855Z,58.60
2022-12-03T01:30:15.453Z,58.60
2022-12-03T01:33:00.752Z,58.60
2022-12-03T01:35:46.783Z,58.70
2022-12-03T01:38:34.800Z,58.90
2022-12-03T01:41:21.488Z,58.90
2022-12-03T01:44:17.682Z,58.70
2022-12-03T01:47:06.059Z,58.60
2022-12-03T01:50:02.225Z,59.00
2022-12-03T01:52:47.738Z,58.90
2022-12-03T01:55:35.022Z,58.90
2022-12-03T01:58:26.742Z,58.60
2022-12-03T02:01:17.120Z,58.70
2022-12-03T02:04:02.652Z,58.50
2022-12-03T02:06:50.347Z,58.40
2022-12-03T02:09:35.415Z,58.40
2022-12-03T02:12:27.058Z,58.40
2022-12-03T02:15:13.008Z,58.40
2022-12-03T02:17:58.459Z,58.40
2022-12-03T02:21:00.909Z,58.30
2022-12-03T02:24:05.073Z,58.20
2022-12-03T02:26:50.329Z,58.30
2022-12-03T02:29:38.552Z,58.20
2022-12-03T02:32:24.154Z,58.60
2022-12-03T02:35:18.955Z,58.50
2022-12-03T02:38:19.535Z,58.50
2022-12-03T02:41:30.033Z,58.40
2022-12-03T02:44:15.701Z,58.10
2022-12-03T02:47:01.733Z,58.40
2022-12-03T02:49:47.909Z,58.30
2022-12-03T02:52:35.967Z,58.30
2022-12-03T02:55:22.039Z,58.10
2022-12-03T02:58:07.506Z,58.10
2022-12-03T03:00:54.475Z,58.10
2022-12-03T03:03:40.114Z,58.10
2022-12-03T03:06:25.469Z,58.10
2022-12-03T03:09:10.792Z,58.20
2022-12-03T03:11:56.195Z,58.40
2022-12-03T03:14:41.772Z,58.40
2022-12-03T03:17:27.285Z,58.50
2022-12-03T03:20:16.002Z,58.40
2022-12-03T03:23:21.194Z,58.40
2022-12-03T03:26:11.752Z,58.50
2022-12-03T03:29:00.308Z,58.40
2022-12-03T03:31:50.117Z,58.40
2022-12-03T03:34:35.663Z,58.40
2022-12-03T03:37:21.449Z,58.60
2022-12-03T03:40:08.040Z,58.30
2022-12-03T03:42:54.143Z,58.40
2022-12-03T03:45:40.229Z,58.40
2022-12-03T03:48:25.592Z,58.50
2022-12-03T03:51:14.054Z,58.40
2022-12-03T03:54:01.774Z,58.50
2022-12-03T03:56:46.953Z,58.40
2022-12-03T03:59:32.390Z,58.40
2022-12-03T04:02:22.886Z,58.60
2022-12-03T04:05:12.187Z,58.60
2022-12-03T04:07:59.313Z,58.40
2022-12-03T04:11:05.647Z,58.60
2022-12-03T04:13:53.546Z,58.60
2022-12-03T04:16:42.069Z,58.60
2022-12-03T04:19:27.868Z,58.40
2022-12-03T04:22:31.884Z,58.40
2022-12-03T04:25:36.355Z,59.30
2022-12-03T04:28:40.368Z,58.70
2022-12-03T04:31:47.293Z,58.50
2022-12-03T04:34:51.630Z,58.60
2022-12-03T04:37:42.884Z,58.60
2022-12-03T04:40:46.582Z,58.60
2022-12-03T04:43:34.636Z,58.60
2022-12-03T04:46:22.269Z,58.70
2022-12-03T04:49:08.050Z,58.90
2022-12-03T04:51:55.643Z,58.80
2022-12-03T04:54:43.798Z,58.80
2022-12-03T04:57:29.239Z,58.50
2022-12-03T05:00:18.347Z,58.50
2022-12-03T05:03:03.937Z,58.40
2022-12-03T05:05:49.510Z,58.60
2022-12-03T05:08:34.950Z,58.90
2022-12-03T05:11:23.065Z,58.90
2022-12-03T05:14:09.858Z,59.20
2022-12-03T05:16:55.963Z,59.20
2022-12-03T05:19:59.869Z,61.90
2022-12-03T05:22:45.866Z,61.60
2022-12-03T05:25:33.888Z,61.10
2022-12-03T05:28:22.282Z,61.20
2022-12-03T05:31:07.966Z,61.00
2022-12-03T05:33:55.881Z,61.00
2022-12-03T05:36:41.647Z,62.50
2022-12-03T05:39:27.687Z,64.50
2022-12-03T05:42:34.144Z,63.50
2022-12-03T05:45:46.061Z,64.30
2022-12-03T05:48:31.897Z,64.30
2022-12-03T05:51:17.387Z,66.60
2022-12-03T05:54:03.475Z,68.00
2022-12-03T05:56:48.777Z,68.70
2022-12-03T05:59:34.433Z,69.40
2022-12-03T06:02:22.233Z,71.10
2022-12-03T06:05:08.854Z,71.70
2022-12-03T06:07:54.849Z,72.50
2022-12-03T06:10:40.286Z,73.00
2022-12-03T06:13:25.825Z,72.90
2022-12-03T06:16:11.118Z,72.60
2022-12-03T06:18:56.653Z,73.10
2022-12-03T06:21:42.035Z,73.50
2022-12-03T06:24:27.803Z,74.30
2022-12-03T06:27:13.218Z,74.50
2022-12-03T06:29:58.447Z,74.40
2022-12-03T06:32:43.989Z,74.30
2022-12-03T06:35:29.939Z,74.40
2022-12-03T06:38:15.531Z,73.50
2022-12-03T06:41:00.855Z,73.30
2022-12-03T06:43:46.121Z,73.50
2022-12-03T06:46:32.098Z,72.40
2022-12-03T06:49:17.914Z,72.40
2022-12-03T06:52:03.661Z,73.10
2022-12-03T06:54:48.857Z,73.00
2022-12-03T06:57:34.134Z,71.80
2022-12-03T07:00:20.254Z,72.60
2022-12-03T07:03:08.277Z,73.70
2022-12-03T07:05:54.030Z,73.60
2022-12-03T07:08:42.294Z,74.30
2022-12-03T07:11:33.143Z,75.10
2022-12-03T07:14:18.761Z,75.80
2022-12-03T07:17:04.217Z,76.50
2022-12-03T07:19:49.747Z,76.60
2022-12-03T07:22:35.344Z,77.30
2022-12-03T07:25:23.865Z,77.20
2022-12-03T07:28:11.638Z,78.10
2022-12-03T07:30:57.343Z,78.70
2022-12-03T07:33:45.454Z,79.00
2022-12-03T07:36:31.038Z,79.40
2022-12-03T07:39:16.198Z,79.60
2022-12-03T07:42:02.308Z,80.30
2022-12-03T07:44:49.901Z,80.30
2022-12-03T07:47:37.996Z,79.80
2022-12-03T07:50:23.270Z,80.50
2022-12-03T07:53:10.662Z,80.10
2022-12-03T07:55:56.333Z,80.00
2022-12-03T07:58:49.286Z,79.60
2022-12-03T08:01:37.007Z,79.60
2022-12-03T08:04:23.090Z,80.00
2022-12-03T08:07:08.691Z,79.50
2022-12-03T08:09:55.842Z,79.60
2022-12-03T08:12:41.086Z,80.00
2022-12-03T08:15:39.121Z,79.70
2022-12-03T08:18:24.942Z,79.50
2022-12-03T08:21:15.681Z,79.60
2022-12-03T08:24:20.709Z,79.80
2022-12-03T08:27:17.522Z,79.70
2022-12-03T08:30:05.036Z,79.90
2022-12-03T08:32:54.121Z,80.00
2022-12-03T08:35:43.793Z,80.10
2022-12-03T08:38:29.887Z,80.90
2022-12-03T08:41:38.565Z,80.70
2022-12-03T08:44:28.217Z,81.20
2022-12-03T08:47:23.026Z,81.60
2022-12-03T08:50:30.507Z,82.60
2022-12-03T08:53:35.621Z,82.20
2022-12-03T08:56:26.815Z,82.00
2022-12-03T08:59:30.629Z,82.60
2022-12-03T09:02:30.879Z,81.60
2022-12-03T09:05:20.482Z,81.60
2022-12-03T09:08:05.863Z,81.70
2022-12-03T09:10:51.312Z,81.30
2022-12-03T09:13:36.781Z,81.60
2022-12-03T09:16:24.302Z,82.50
2022-12-03T09:19:09.657Z,82.30
2022-12-03T09:21:57.758Z,81.00
2022-12-03T09:24:43.427Z,80.70
2022-12-03T09:27:28.939Z,81.10
2022-12-03T09:30:15.415Z,81.50
2022-12-03T09:33:01.187Z,81.30
2022-12-03T09:35:46.814Z,81.00
2022-12-03T09:38:32.533Z,80.10
2022-12-03T09:41:17.873Z,79.50
2022-12-03T09:44:04.771Z,79.30
2022-12-03T09:46:52.949Z,81.10
2022-12-03T09:49:41.831Z,81.90
2022-12-03T09:52:33.914Z,81.40
2022-12-03T09:55:24.798Z,80.70
2022-12-03T09:58:12.886Z,80.10
2022-12-03T10:00:58.491Z,80.20
2022-12-03T10:03:50.207Z,80.70
2022-12-03T10:06:38.843Z,80.50
2022-12-03T10:09:29.175Z,80.70
2022-12-03T10:12:18.837Z,81.50
2022-12-03T10:15:06.446Z,80.90
2022-12-03T10:17:55.866Z,80.50
2022-12-03T10:20:41.098Z,79.10
2022-12-03T10:23:31.104Z,78.70
2022-12-03T10:26:19.851Z,78.10
2022-12-03T10:29:17.593Z,77.20
2022-12-03T10:32:10.568Z,77.00
2022-12-03T10:35:10.887Z,76.80
2022-12-03T10:38:06.803Z,76.20
2022-12-03T10:40:52.513Z,76.60
2022-12-03T10:43:37.700Z,75.70
2022-12-03T10:46:23.587Z,75.80
2022-12-03T10:49:19.669Z,75.30
2022-12-03T10:52:06.913Z,75.20
2022-12-03T10:54:52.545Z,75.30
2022-12-03T10:57:45.267Z,74.70
2022-12-03T11:00:31.502Z,74.20
2022-12-03T11:03:28.591Z,73.60
2022-12-03T11:06:19.072Z,73.80
2022-12-03T11:09:09.072Z,72.90
2022-12-03T11:11:55.642Z,73.00
2022-12-03T11:14:54.126Z,72.40
2022-12-03T11:17:47.108Z,71.70
2022-12-03T11:20:33.236Z,70.90
2022-12-03T11:23:46.870Z,70.90
2022-12-03T11:26:38.655Z,70.70
2022-12-03T11:29:47.590Z,70.60
2022-12-03T11:33:02.878Z,69.70
2022-12-03T11:36:03.594Z,69.90
2022-12-03T11:38:58.704Z,69.30
2022-12-03T11:42:26.285Z,68.80
2022-12-03T11:45:32.590Z,68.80
2022-12-03T11:48:18.746Z,68.30
2022-12-03T11:51:04.187Z,67.60
2022-12-03T11:53:51.230Z,67.30
2022-12-03T11:56:43.935Z,67.20
2022-12-03T11:59:29.169Z,66.80
2022-12-03T12:02:21.215Z,66.70
2022-12-03T12:05:35.049Z,66.80
2022-12-03T12:08:21.366Z,66.50
2022-12-03T12:11:25.321Z,66.40
2022-12-03T12:14:26.496Z,66.10
2022-12-03T12:17:36.757Z,65.80
2022-12-03T12:20:28.832Z,65.50
2022-12-03T12:23:23.207Z,65.40
2022-12-03T12:26:11.837Z,65.60
2022-12-03T12:28:57.062Z,65.40
2022-12-03T12:31:42.428Z,65.50
2022-12-03T12:34:30.868Z,65.50
2022-12-03T12:37:32.968Z,65.40
2022-12-03T12:40:19.558Z,65.50
2022-12-03T12:43:26.580Z,65.50
2022-12-03T12:49:26.784Z,65.60
2022-12-03T12:52:14.536Z,65.70
2022-12-03T12:55:04.892Z,65.80
2022-12-03T12:57:51.693Z,65.80
2022-12-03T13:00:37.237Z,66.40
2022-12-03T13:03:28.880Z,67.00
2022-12-03T13:06:17.105Z,67.30
2022-12-03T13:09:02.615Z,67.10
2022-12-03T13:11:57.282Z,67.10
2022-12-03T13:14:45.315Z,67.40
2022-12-03T13:17:30.831Z,67.90
2022-12-03T13:20:20.005Z,68.20
2022-12-03T13:23:31.361Z,68.20
2022-12-03T13:26:36.538Z,68.30
2022-12-03T13:29:28.984Z,68.70
2022-12-03T13:32:36.307Z,68.90
2022-12-03T13:35:31.455Z,68.40
2022-12-03T13:38:17.319Z,68.40
2022-12-03T13:41:03.909Z,68.60
2022-12-03T13:43:49.234Z,68.90
2022-12-03T13:46:35.928Z,68.80
2022-12-03T13:49:23.204Z,68.40
2022-12-03T13:52:17.125Z,68.50
2022-12-03T13:55:03.939Z,68.60
2022-12-03T13:57:49.547Z,68.60
2022-12-03T14:00:37.655Z,68.30
2022-12-03T14:03:25.545Z,68.40
2022-12-03T14:06:10.817Z,68.60
2022-12-03T14:08:56.446Z,68.50
2022-12-03T14:12:00.276Z,68.60
2022-12-03T14:14:46.303Z,68.40
2022-12-03T14:17:34.869Z,68.70
2022-12-03T14:20:22.853Z,68.70
2022-12-03T14:23:08.080Z,68.40
2022-12-03T14:25:56.692Z,68.40
2022-12-03T14:28:41.989Z,68.30
2022-12-03T14:31:27.274Z,68.20
2022-12-03T14:34:12.812Z,68.50
2022-12-03T14:36:58.236Z,68.40
2022-12-03T14:39:46.706Z,68.50
2022-12-03T14:42:32.022Z,68.50
2022-12-03T14:45:17.503Z,68.50
2022-12-03T14:48:03.128Z,68.30
2022-12-03T14:50:48.555Z,68.50
2022-12-03T14:53:36.341Z,68.70
2022-12-03T14:56:21.568Z,68.70
2022-12-03T14:59:07.471Z,68.60
2022-12-03T15:01:53.125Z,68.30
2022-12-03T15:04:39.947Z,68.60
2022-12-03T15:07:27.993Z,69.00
2022-12-03T15:10:13.797Z,69.00
2022-12-03T15:12:59.591Z,68.90
2022-12-03T15:15:45.268Z,69.20
2022-12-03T15:18:34.538Z,69.10
2022-12-03T15:21:22.314Z,69.20
2022-12-03T15:24:10.402Z,69.70
2022-12-03T15:26:56.570Z,69.50
2022-12-03T15:29:41.875Z,69.50
2022-12-03T15:32:27.612Z,69.60
2022-12-03T15:35:18.573Z,69.70
2022-12-03T15:38:06.114Z,69.60
2022-12-03T15:40:51.786Z,69.90
2022-12-03T15:43:37.185Z,69.50
2022-12-03T15:46:22.810Z,69.60
2022-12-03T15:49:08.315Z,69.40
2022-12-03T15:51:53.634Z,69.50
2022-12-03T15:54:39.375Z,69.40
2022-12-03T15:57:24.932Z,69.40
2022-12-03T16:00:12.953Z,69.50
2022-12-03T16:03:00.435Z,69.50
2022-12-03T16:05:46.195Z,69.40
2022-12-03T16:08:32.273Z,69.50
2022-12-03T16:11:19.759Z,69.40
2022-12-03T16:14:05.846Z,69.30
2022-12-03T16:16:51.193Z,69.50
2022-12-03T16:19:37.118Z,69.60
2022-12-03T16:22:24.866Z,69.60
2022-12-03T16:25:10.252Z,69.60
2022-12-03T16:27:56.546Z,69.50
2022-12-03T16:30:42.936Z,69.70
2022-12-03T16:33:31.867Z,69.60
2022-12-03T16:36:17.794Z,69.80
2022-12-03T16:39:06.149Z,69.70
2022-12-03T16:41:57.127Z,69.60
2022-12-03T16:45:14.657Z,69.40
2022-12-03T16:48:01.213Z,69.30
2022-12-03T16:50:46.863Z,69.30
2022-12-03T16:53:33.059Z,69.60
2022-12-03T16:56:18.634Z,69.10
2022-12-03T16:59:04.225Z,69.30
2022-12-03T17:01:49.847Z,69.20
2022-12-03T17:04:35.475Z,69.40
2022-12-03T17:07:20.856Z,69.40
2022-12-03T17:10:09.122Z,69.20
2022-12-03T17:13:09.353Z,69.20
2022-12-03T17:15:55.398Z,70.00
2022-12-03T17:18:41.408Z,69.70
2022-12-03T17:21:30.786Z,69.20
2022-12-03T17:24:19.032Z,69.00
2022-12-03T17:27:07.893Z,69.40
2022-12-03T17:29:53.680Z,69.30
2022-12-03T17:32:40.075Z,69.10
2022-12-03T17:35:26.789Z,68.90
2022-12-03T17:38:12.622Z,69.00
2022-12-03T17:40:58.488Z,68.90
2022-12-03T17:43:46.041Z,68.90
2022-12-03T17:46:31.375Z,69.00
2022-12-03T17:49:19.347Z,69.00
2022-12-03T17:52:04.763Z,68.90
2022-12-03T17:55:09.726Z,68.90
2022-12-03T17:57:55.411Z,69.10
2022-12-03T18:00:43.144Z,68.80
2022-12-03T18:03:28.547Z,68.70
2022-12-03T18:06:16.211Z,68.80
2022-12-03T18:09:01.799Z,68.80
2022-12-03T18:11:47.033Z,68.70
2022-12-03T18:14:33.612Z,68.80
2022-12-03T18:17:21.324Z,68.70
2022-12-03T18:20:21.672Z,68.60
2022-12-03T18:23:07.152Z,68.80
2022-12-03T18:25:52.953Z,68.90
2022-12-03T18:28:39.889Z,69.00
2022-12-03T18:31:26.052Z,69.10
2022-12-03T18:34:13.667Z,69.10
2022-12-03T18:37:01.220Z,69.20
2022-12-03T18:39:47.883Z,69.40
2022-12-03T18:42:33.619Z,69.10
2022-12-03T18:45:19.800Z,69.90
2022-12-03T18:48:13.240Z,69.30
2022-12-03T18:51:01.910Z,69.10
2022-12-03T18:53:48.130Z,69.10
2022-12-03T18:56:36.425Z,69.20
2022-12-03T18:59:21.784Z,69.20
2022-12-03T19:02:10.652Z,69.30
2022-12-03T19:04:56.391Z,69.10
2022-12-03T19:07:43.340Z,69.80
2022-12-03T19:10:31.321Z,69.20
2022-12-03T19:13:17.097Z,69.10
2022-12-03T19:16:04.180Z,69.30
2022-12-03T19:18:49.872Z,69.20
2022-12-03T19:21:40.326Z,69.00
2022-12-03T19:24:25.789Z,69.00
2022-12-03T19:27:11.419Z,69.00
2022-12-03T19:29:57.836Z,69.10
2022-12-03T19:32:45.263Z,69.60
2022-12-03T19:35:31.301Z,69.20
2022-12-03T19:38:16.779Z,69.30
2022-12-03T19:41:02.881Z,69.30
2022-12-03T19:43:51.986Z,70.00
2022-12-03T19:46:37.117Z,69.30
2022-12-03T19:49:22.847Z,69.20
2022-12-03T19:52:08.901Z,68.90
2022-12-03T19:54:54.501Z,69.00
2022-12-03T19:57:39.876Z,69.00
2022-12-03T20:00:25.049Z,69.40
2022-12-03T20:03:10.777Z,69.50
2022-12-03T20:05:59.373Z,69.10
2022-12-03T20:08:45.542Z,69.30
2022-12-03T20:11:34.916Z,69.70
2022-12-03T20:14:20.401Z,69.20
2022-12-03T20:17:06.309Z,69.40
2022-12-03T20:19:54.728Z,69.50
2022-12-03T20:22:40.430Z,69.40
2022-12-03T20:25:27.939Z,69.60
2022-12-03T20:28:15.360Z,69.50
2022-12-03T20:31:03.473Z,69.30
2022-12-03T20:33:51.901Z,69.30
2022-12-03T20:36:37.765Z,69.30
2022-12-03T20:39:23.360Z,69.40
2022-12-03T20:42:10.378Z,69.30
2022-12-03T20:44:56.276Z,69.50
2022-12-03T20:47:41.950Z,69.50
2022-12-03T20:50:29.602Z,69.60
2022-12-03T20:53:24.929Z,69.60
2022-12-03T20:56:15.949Z,69.60
2022-12-03T20:59:09.624Z,69.60
2022-12-03T21:01:55.016Z,69.40
2022-12-03T21:04:40.427Z,69.40
2022-12-03T21:07:28.378Z,69.50
2022-12-03T21:10:37.031Z,69.40
2022-12-03T21:13:23.253Z,69.50
2022-12-03T21:16:26.131Z,69.60
2022-12-03T21:19:25.251Z,69.70
2022-12-03T21:22:10.570Z,69.50
2022-12-03T21:24:59.040Z,69.50
2022-12-03T21:27:46.895Z,69.50
2022-12-03T21:30:33.284Z,69.70
2022-12-03T21:33:19.005Z,69.60
2022-12-03T21:36:07.466Z,70.00
2022-12-03T21:38:57.639Z,69.70
2022-12-03T21:42:22.159Z,69.90
2022-12-03T21:44:53.754Z,69.80
2022-12-03T21:47:41.754Z,70.20
2022-12-03T21:50:34.246Z,70.00
2022-12-03T21:53:19.508Z,70.10
2022-12-03T21:56:13.524Z,70.30
2022-12-03T21:59:01.753Z,70.20
2022-12-03T22:01:47.475Z,70.20
2022-12-03T22:04:35.514Z,70.10
2022-12-03T22:07:20.872Z,70.20
2022-12-03T22:10:08.724Z,70.20
2022-12-03T22:12:56.264Z,70.30
2022-12-03T22:15:41.689Z,70.30
2022-12-03T22:18:29.509Z,70.40
2022-12-03T22:21:19.735Z,70.50
2022-12-03T22:24:07.193Z,70.70
2022-12-03T22:26:54.752Z,70.60
2022-12-03T22:29:40.508Z,70.80
2022-12-03T22:32:28.298Z,70.50
2022-12-03T22:35:15.595Z,70.60
2022-12-03T22:38:00.877Z,70.70
2022-12-03T22:40:47.118Z,70.70
2022-12-03T22:43:32.852Z,70.80
2022-12-03T22:46:18.493Z,70.80
2022-12-03T22:49:07.413Z,70.70
2022-12-03T22:51:55.447Z,70.60
2022-12-03T22:54:45.372Z,70.80
2022-12-03T22:57:31.454Z,70.70
2022-12-03T23:00:29.449Z,70.70
2022-12-03T23:03:14.782Z,70.70
2022-12-03T23:06:00.382Z,70.60
2022-12-03T23:08:46.558Z,70.60
2022-12-03T23:11:32.419Z,70.80
2022-12-03T23:14:20.043Z,70.90
2022-12-03T23:17:05.447Z,70.70
2022-12-03T23:19:53.471Z,70.80
2022-12-03T23:22:42.519Z,70.60
2022-12-03T23:25:27.841Z,70.80
2022-12-03T23:28:16.065Z,70.70
2022-12-03T23:31:02.155Z,70.90
2022-12-03T23:33:50.805Z,70.90
2022-12-03T23:36:36.332Z,70.80
2022-12-03T23:39:24.809Z,71.20
2022-12-03T23:42:10.941Z,71.30
2022-12-03T23:44:56.933Z,71.20
2022-12-03T23:47:44.916Z,71.00
2022-12-03T23:50:35.107Z,71.20
2022-12-03T23:53:21.104Z,71.10
2022-12-03T23:56:08.679Z,71.10
2022-12-03T23:58:58.063Z,71.10
